Time;durP1;ratioP1;P1;durP2;ratioP2;P2;SDS_P1;SDS_P2;PMS_P1;PMS_P2;Temp;Humidity;BMP_temperature;BMP_pressure;BME280_temperature;BME280_humidity;BME280_pressure;Samples;Min_cycle;Max_cycle;Signal;HPM_P1;HPM_P2
2021/07/25 00:02:22;;;;;;;21.13;14.80;;;19.70;87.20;;;;;;5057399;28;20167;-88
2021/07/25 00:04:48;;;;;;;20.65;14.52;;;19.50;87.60;;;;;;5075328;28;20164;-88
2021/07/25 00:07:13;;;;;;;28.45;16.25;;;19.40;87.80;;;;;;5075332;28;20187;-87
2021/07/25 00:09:39;;;;;;;22.60;15.77;;;19.30;88.00;;;;;;5057252;28;20540;-89
2021/07/25 00:12:05;;;;;;;22.77;15.30;;;19.30;87.70;;;;;;5057182;28;20213;-88
2021/07/25 00:14:31;;;;;;;27.48;15.40;;;19.30;87.70;;;;;;5057949;28;20175;-88
2021/07/25 00:16:57;;;;;;;22.73;15.70;;;19.20;88.10;;;;;;5056812;28;20211;-88
2021/07/25 00:19:22;;;;;;;24.45;16.25;;;19.20;88.20;;;;;;5075019;28;20176;-88
2021/07/25 00:21:48;;;;;;;18.52;14.57;;;19.20;88.40;;;;;;5056932;28;20171;-88
2021/07/25 00:24:17;;;;;;;18.73;15.75;;;19.20;88.70;;;;;;5057272;28;20552;-88
2021/07/25 00:26:48;;;;;;;20.33;15.43;;;19.10;88.70;;;;;;5074653;28;20213;-89
2021/07/25 00:29:14;;;;;;;21.83;16.60;;;19.10;88.50;;;;;;5057982;28;20578;-88
2021/07/25 00:31:40;;;;;;;20.70;17.27;;;19.20;88.90;;;;;;5057414;28;20232;-88
2021/07/25 00:34:05;;;;;;;18.88;16.80;;;19.10;89.00;;;;;;5056750;28;20596;-88
2021/07/25 00:36:31;;;;;;;18.10;16.20;;;19.10;89.20;;;;;;5056561;28;20624;-89
2021/07/25 00:38:57;;;;;;;21.80;16.73;;;19.10;89.20;;;;;;5056651;28;20175;-88
2021/07/25 00:41:22;;;;;;;19.85;17.20;;;19.10;89.10;;;;;;5056577;28;20171;-86
2021/07/25 00:43:49;;;;;;;22.13;18.35;;;19.10;89.20;;;;;;5056549;28;20179;-86
2021/07/25 00:46:16;;;;;;;19.58;17.17;;;19.10;89.00;;;;;;5074456;28;20191;-86
2021/07/25 00:48:43;;;;;;;23.50;17.88;;;19.20;89.10;;;;;;5074275;28;20176;-86
2021/07/25 00:51:09;;;;;;;21.48;17.58;;;19.10;89.30;;;;;;5074234;28;20167;-88
2021/07/25 00:53:38;;;;;;;25.83;18.60;;;19.20;89.00;;;;;;5074221;28;20171;-88
2021/07/25 00:56:04;;;;;;;21.05;18.38;;;19.10;89.40;;;;;;5056119;28;20609;-88
2021/07/25 00:58:31;;;;;;;23.63;18.02;;;19.10;89.40;;;;;;5074105;28;20167;-88
2021/07/25 01:00:56;;;;;;;26.05;18.85;;;19.10;89.20;;;;;;5074059;28;20171;-88
2021/07/25 01:03:28;;;;;;;22.77;18.48;;;19.20;89.10;;;;;;5074301;28;20231;-88
2021/07/25 01:06:06;;;;;;;25.13;20.15;;;19.20;89.10;;;;;;5056330;28;20180;-89
2021/07/25 01:08:42;;;;;;;25.23;18.33;;;19.20;89.30;;;;;;5056136;28;20172;-88
2021/07/25 01:11:09;;;;;;;22.90;18.58;;;19.20;89.30;;;;;;5056656;28;20213;-88
2021/07/25 01:13:39;;;;;;;24.85;18.20;;;19.20;89.30;;;;;;5073881;28;20174;-88
2021/07/25 01:16:05;;;;;;;20.17;18.08;;;19.20;89.40;;;;;;5056394;28;20207;-88
2021/07/25 01:18:30;;;;;;;24.50;19.30;;;19.10;89.40;;;;;;5073762;28;20715;-88
2021/07/25 01:20:56;;;;;;;23.38;18.92;;;19.20;89.20;;;;;;5073705;28;20171;-88
2021/07/25 01:23:26;;;;;;;26.92;18.85;;;19.10;89.20;;;;;;5055943;28;20214;-88
2021/07/25 01:25:57;;;;;;;23.02;19.88;;;19.10;89.40;;;;;;5073989;28;20163;-89
2021/07/25 01:28:32;;;;;;;21.90;19.20;;;19.10;89.30;;;;;;5055230;28;20175;-88
2021/07/25 01:31:00;;;;;;;22.05;18.05;;;19.10;89.10;;;;;;5055796;28;20630;-88
2021/07/25 01:33:28;;;;;;;25.02;19.40;;;19.00;89.30;;;;;;5055698;28;20183;-88
2021/07/25 01:35:56;;;;;;;23.08;19.73;;;19.10;89.10;;;;;;5055570;28;20225;-88
2021/07/25 01:38:24;;;;;;;21.33;18.75;;;19.00;89.20;;;;;;5073516;28;20172;-88
2021/07/25 01:41:04;;;;;;;27.70;19.38;;;19.00;89.30;;;;;;5055646;28;20206;-88
2021/07/25 01:43:35;;;;;;;29.27;18.80;;;19.00;89.10;;;;;;5055570;28;20182;-89
2021/07/25 01:46:01;;;;;;;23.60;19.17;;;19.10;89.10;;;;;;5055402;28;20163;-89
2021/07/25 01:48:26;;;;;;;26.25;18.63;;;19.00;89.10;;;;;;5056336;28;20228;-89
2021/07/25 01:50:52;;;;;;;28.70;17.48;;;19.00;89.00;;;;;;5055414;28;20175;-88
2021/07/25 01:53:18;;;;;;;28.58;18.25;;;19.00;88.80;;;;;;5073635;28;20171;-89
2021/07/25 01:55:44;;;;;;;22.60;18.55;;;18.90;88.80;;;;;;5055385;28;20206;-89
2021/07/25 01:58:10;;;;;;;19.52;16.85;;;19.00;88.60;;;;;;5055253;28;20248;-89
2021/07/25 02:00:36;;;;;;;23.27;17.35;;;18.90;88.60;;;;;;5073382;28;20669;-88
2021/07/25 02:03:02;;;;;;;25.42;17.23;;;19.00;88.60;;;;;;5055854;28;20171;-89
2021/07/25 02:05:28;;;;;;;21.20;16.40;;;19.00;88.40;;;;;;5055449;28;20175;-88
2021/07/25 02:07:53;;;;;;;23.17;16.77;;;18.90;88.40;;;;;;5073152;28;20199;-89
2021/07/25 02:10:19;;;;;;;25.17;17.90;;;18.90;87.80;;;;;;5055295;28;20175;-89
2021/07/25 02:12:45;;;;;;;31.95;18.15;;;18.80;87.90;;;;;;5055203;28;20179;-89
2021/07/25 02:15:11;;;;;;;19.48;17.40;;;18.90;88.00;;;;;;5073326;28;20198;-88
2021/07/25 02:17:36;;;;;;;22.20;17.98;;;18.80;87.90;;;;;;5055081;28;20195;-89
2021/07/25 02:20:03;;;;;;;23.75;16.48;;;18.90;87.90;;;;;;5073206;28;20251;-89
2021/07/25 02:22:29;;;;;;;28.98;18.30;;;18.90;87.70;;;;;;5055095;28;20175;-89
2021/07/25 02:24:55;;;;;;;23.52;16.73;;;18.90;87.50;;;;;;5055402;28;20666;-89
2021/07/25 02:27:20;;;;;;;26.60;16.90;;;18.90;87.80;;;;;;5055079;28;20218;-89
2021/07/25 02:29:46;;;;;;;18.35;16.25;;;18.80;88.10;;;;;;5055090;28;20202;-88
2021/07/25 02:32:11;;;;;;;25.55;17.00;;;18.80;88.10;;;;;;5055124;28;20172;-89
2021/07/25 02:34:38;;;;;;;26.92;16.58;;;18.70;88.00;;;;;;5055104;28;20172;-88
2021/07/25 02:37:05;;;;;;;30.00;17.38;;;18.80;88.00;;;;;;5054826;28;20269;-88
2021/07/25 02:39:31;;;;;;;29.83;16.85;;;18.80;88.10;;;;;;5055507;28;20179;-88
2021/07/25 02:41:56;;;;;;;21.20;16.50;;;18.70;88.10;;;;;;5058911;28;20183;-88
2021/07/25 02:44:22;;;;;;;20.77;17.00;;;18.70;88.10;;;;;;5059084;28;20179;-89
2021/07/25 02:46:47;;;;;;;23.55;16.85;;;18.70;88.30;;;;;;5077142;28;20195;-89
2021/07/25 02:49:14;;;;;;;25.38;17.48;;;18.60;88.30;;;;;;5058758;28;20623;-88
2021/07/25 02:51:40;;;;;;;26.20;17.38;;;18.70;88.20;;;;;;5059489;28;20178;-88
2021/07/25 02:54:05;;;;;;;34.35;17.63;;;18.70;88.10;;;;;;5058514;28;20270;-89
2021/07/25 02:56:31;;;;;;;17.23;15.05;;;18.70;88.10;;;;;;5058466;28;20638;-89
2021/07/25 02:58:56;;;;;;;22.13;16.52;;;18.70;87.70;;;;;;5058575;28;20175;-89
2021/07/25 03:01:22;;;;;;;28.65;16.42;;;18.80;87.50;;;;;;5058487;28;20206;-89
2021/07/25 03:03:47;;;;;;;24.35;16.48;;;18.80;87.10;;;;;;5058476;28;20293;-89
2021/07/25 03:06:13;;;;;;;27.85;17.05;;;18.80;87.00;;;;;;5058415;28;20172;-89
2021/07/25 03:08:39;;;;;;;25.75;17.10;;;18.90;87.00;;;;;;5058500;28;20175;-89
2021/07/25 03:11:08;;;;;;;24.75;17.33;;;18.90;86.90;;;;;;5058353;28;20644;-89
2021/07/25 03:13:35;;;;;;;20.33;17.75;;;18.90;86.70;;;;;;5058347;28;20237;-89
2021/07/25 03:16:02;;;;;;;30.10;18.13;;;18.90;86.70;;;;;;5058983;28;20213;-89
2021/07/25 03:18:28;;;;;;;26.08;18.25;;;19.00;86.70;;;;;;5058203;28;20177;-89
2021/07/25 03:20:53;;;;;;;24.00;18.67;;;19.00;86.90;;;;;;5076109;28;20171;-89
2021/07/25 03:23:19;;;;;;;29.60;19.17;;;19.00;86.90;;;;;;5058384;28;20167;-89
2021/07/25 03:25:44;;;;;;;26.08;20.73;;;19.00;87.50;;;;;;5058055;28;20175;-89
2021/07/25 03:28:10;;;;;;;27.92;21.40;;;19.00;87.70;;;;;;5058417;28;20238;-89
2021/07/25 03:30:36;;;;;;;29.23;21.23;;;19.00;87.70;;;;;;5058835;28;20208;-89
2021/07/25 03:33:01;;;;;;;29.52;22.67;;;19.10;87.60;;;;;;5058013;28;20175;-89
2021/07/25 03:35:27;;;;;;;29.02;23.73;;;19.10;88.00;;;;;;5057824;28;20682;-89
2021/07/25 03:37:52;;;;;;;36.97;24.60;;;19.20;88.20;;;;;;5057837;28;20194;-89
2021/07/25 03:40:18;;;;;;;35.83;26.13;;;19.20;87.80;;;;;;5058048;28;20176;-89
2021/07/25 03:42:44;;;;;;;38.28;25.73;;;19.10;87.90;;;;;;5057740;28;20167;-89
2021/07/25 03:45:10;;;;;;;37.70;25.42;;;19.10;88.20;;;;;;5057738;28;20209;-89
2021/07/25 03:47:38;;;;;;;36.70;25.85;;;19.10;88.30;;;;;;5057839;28;20241;-89
2021/07/25 03:50:04;;;;;;;37.25;27.15;;;19.00;88.20;;;;;;5057781;28;20529;-89
2021/07/25 03:52:29;;;;;;;37.25;28.00;;;19.10;88.30;;;;;;5057384;28;20602;-89
2021/07/25 03:54:55;;;;;;;41.47;28.70;;;19.10;88.40;;;;;;5057386;28;20175;-89
2021/07/25 03:57:21;;;;;;;40.28;28.58;;;19.10;88.50;;;;;;5057310;28;20640;-89
2021/07/25 03:59:46;;;;;;;43.22;29.15;;;19.10;88.50;;;;;;5057742;28;20181;-89
2021/07/25 04:02:12;;;;;;;38.42;27.15;;;19.10;88.70;;;;;;5057445;28;20266;-89
2021/07/25 04:04:37;;;;;;;49.70;30.35;;;19.10;88.70;;;;;;5057394;28;20201;-89
2021/07/25 04:07:03;;;;;;;37.22;28.65;;;19.00;88.90;;;;;;5075346;28;20659;-89
2021/07/25 04:09:29;;;;;;;42.08;29.08;;;19.00;88.80;;;;;;5057228;28;20179;-89
2021/07/25 04:11:55;;;;;;;35.22;30.02;;;19.00;88.90;;;;;;5057151;28;20179;-89
2021/07/25 04:14:24;;;;;;;43.40;31.60;;;19.00;89.00;;;;;;5057350;28;20175;-89
2021/07/25 04:16:50;;;;;;;39.00;31.35;;;19.00;89.10;;;;;;5057013;28;20555;-89
2021/07/25 04:19:16;;;;;;;50.92;33.72;;;19.00;89.10;;;;;;5075222;28;20171;-89
2021/07/25 04:21:42;;;;;;;45.47;31.88;;;19.00;89.20;;;;;;5056926;28;20651;-89
2021/07/25 04:24:08;;;;;;;43.35;33.60;;;19.00;89.20;;;;;;5075073;28;20179;-89
2021/07/25 04:26:34;;;;;;;44.65;33.70;;;19.00;89.30;;;;;;5056716;28;20297;-89
2021/07/25 04:29:00;;;;;;;47.72;34.72;;;19.00;89.40;;;;;;5074673;28;20247;-89
2021/07/25 04:31:26;;;;;;;47.70;34.95;;;19.00;89.50;;;;;;5056842;28;20650;-88
2021/07/25 04:33:54;;;;;;;49.05;35.15;;;19.00;89.50;;;;;;5057280;28;20171;-89
2021/07/25 04:36:26;;;;;;;47.53;34.15;;;19.00;89.50;;;;;;5056681;28;20203;-88
2021/07/25 04:38:57;;;;;;;49.88;35.80;;;19.00;89.60;;;;;;5074992;28;20619;-89
2021/07/25 04:41:26;;;;;;;54.58;38.15;;;18.90;89.80;;;;;;5056810;28;20267;-89
2021/07/25 04:44:07;;;;;;;43.78;35.47;;;19.00;89.80;;;;;;5056702;28;20202;-89
2021/07/25 04:46:37;;;;;;;46.15;36.10;;;19.00;89.80;;;;;;5056464;28;20203;-89
2021/07/25 04:49:16;;;;;;;49.53;37.70;;;19.00;89.70;;;;;;5057149;28;20164;-89
2021/07/25 04:51:44;;;;;;;45.90;36.28;;;19.00;89.70;;;;;;5056486;28;20159;-89
2021/07/25 04:54:15;;;;;;;43.78;36.10;;;19.00;89.50;;;;;;5056656;28;20175;-89
2021/07/25 04:57:01;;;;;;;48.33;38.17;;;19.00;89.60;;;;;;5056461;28;20211;-89
2021/07/25 04:59:40;;;;;;;57.47;39.45;;;19.00;89.70;;;;;;5056219;28;20168;-88
2021/07/25 05:02:08;;;;;;;51.15;38.42;;;19.10;89.70;;;;;;5055621;28;20237;-89
2021/07/25 05:04:34;;;;;;;45.88;37.28;;;19.20;89.50;;;;;;5055973;28;20651;-88
2021/07/25 05:07:01;;;;;;;51.03;39.65;;;19.20;89.50;;;;;;5056062;28;20195;-89
2021/07/25 05:09:27;;;;;;;50.75;40.05;;;19.20;89.60;;;;;;5056084;28;20187;-88
2021/07/25 05:12:17;;;;;;;55.88;41.13;;;19.20;89.50;;;;;;5056087;28;20179;-88
2021/07/25 05:14:46;;;;;;;53.85;40.33;;;19.20;89.50;;;;;;5074146;28;20160;-89
2021/07/25 05:17:28;;;;;;;57.45;43.17;;;19.20;89.70;;;;;;5073699;28;20667;-88
2021/07/25 05:20:03;;;;;;;61.70;44.90;;;19.10;89.70;;;;;;5055875;28;20658;-89
2021/07/25 05:22:41;;;;;;;60.25;42.78;;;19.20;89.80;;;;;;5055861;28;20656;-89
2021/07/25 05:25:07;;;;;;;65.38;45.67;;;19.20;89.70;;;;;;5056366;28;20218;-88
2021/07/25 05:27:40;;;;;;;66.90;46.22;;;19.20;89.70;;;;;;5055666;28;20284;-88
2021/07/25 05:30:06;;;;;;;63.67;44.92;;;19.30;89.60;;;;;;5055989;28;20241;-89
2021/07/25 05:32:32;;;;;;;57.20;46.08;;;19.30;89.30;;;;;;5056182;28;20263;-89
2021/07/25 05:34:58;;;;;;;60.90;45.22;;;19.20;89.40;;;;;;5055533;28;20669;-89
2021/07/25 05:37:23;;;;;;;64.28;45.00;;;19.30;89.40;;;;;;5055543;28;20236;-89
2021/07/25 05:39:49;;;;;;;66.88;45.25;;;19.30;89.40;;;;;;5055577;28;20666;-89
2021/07/25 05:42:14;;;;;;;66.25;45.97;;;19.40;89.50;;;;;;5073757;28;20164;-89
2021/07/25 05:44:40;;;;;;;62.10;46.88;;;19.50;89.40;;;;;;5055851;28;20619;-89
2021/07/25 05:47:05;;;;;;;64.68;48.47;;;19.50;89.10;;;;;;5055393;28;20202;-89
2021/07/25 05:49:31;;;;;;;56.45;43.92;;;19.60;89.40;;;;;;5055536;28;20184;-89
2021/07/25 05:51:57;;;;;;;59.90;43.78;;;19.60;89.20;;;;;;5073270;28;20701;-89
2021/07/25 05:54:22;;;;;;;55.13;42.00;;;19.60;88.90;;;;;;5055410;28;20179;-89
2021/07/25 05:56:48;;;;;;;55.35;43.28;;;19.60;88.80;;;;;;5055264;28;20260;-89
2021/07/25 05:59:14;;;;;;;57.47;41.42;;;19.60;88.50;;;;;;5055523;28;20167;-89
2021/07/25 06:01:43;;;;;;;56.45;40.75;;;19.60;88.50;;;;;;5055421;28;20171;-89
2021/07/25 06:04:09;;;;;;;54.67;39.20;;;19.60;87.90;;;;;;5055253;28;20175;-89
2021/07/25 06:06:34;;;;;;;51.53;39.63;;;19.60;87.70;;;;;;5055183;28;20291;-89
2021/07/25 06:09:03;;;;;;;50.72;38.63;;;19.70;88.00;;;;;;5073513;28;20175;-89
2021/07/25 06:11:29;;;;;;;52.90;39.80;;;19.70;87.80;;;;;;5055297;28;20171;-89
2021/07/25 06:13:54;;;;;;;51.13;37.42;;;19.70;87.70;;;;;;5056436;28;20244;-89
2021/07/25 06:16:20;;;;;;;51.63;38.85;;;19.70;87.90;;;;;;5059168;28;20233;-89
2021/07/25 06:18:48;;;;;;;51.35;37.65;;;19.80;87.80;;;;;;5059663;28;20171;-89
2021/07/25 06:21:17;;;;;;;52.50;37.95;;;19.80;87.30;;;;;;5083018;23;20246;-89
2021/07/25 06:23:43;;;;;;;46.83;36.47;;;19.80;86.90;;;;;;5078050;28;20178;-90
2021/07/25 06:26:08;;;;;;;45.65;36.10;;;19.90;87.00;;;;;;5077610;28;20179;-90
2021/07/25 06:28:34;;;;;;;48.75;38.20;;;19.90;87.00;;;;;;5076389;28;20175;-90
2021/07/25 06:31:00;;;;;;;47.40;37.70;;;20.00;87.00;;;;;;5076111;28;20206;-89
2021/07/25 06:33:28;;;;;;;41.90;36.67;;;20.00;86.70;;;;;;5059337;28;20171;-87
2021/07/25 06:35:55;;;;;;;45.28;36.20;;;20.00;86.20;;;;;;5076834;28;20600;-87
2021/07/25 06:38:21;;;;;;;43.45;34.65;;;20.00;86.00;;;;;;5076936;28;20191;-87
2021/07/25 06:40:50;;;;;;;48.17;35.22;;;20.00;85.90;;;;;;5076937;28;20191;-88
2021/07/25 06:43:17;;;;;;;41.08;33.35;;;20.10;86.00;;;;;;5059115;28;20171;-87
2021/07/25 06:45:42;;;;;;;43.80;35.13;;;20.20;85.80;;;;;;5059620;28;20178;-89
2021/07/25 06:48:25;;;;;;;40.95;33.40;;;20.20;86.30;;;;;;5077330;28;20525;-89
2021/07/25 06:50:52;;;;;;;42.03;33.80;;;20.30;85.10;;;;;;5059850;28;20286;-88
2021/07/25 06:53:19;;;;;;;39.88;34.25;;;20.30;85.20;;;;;;5059470;28;20186;-89
2021/07/25 06:55:46;;;;;;;40.60;33.28;;;20.30;85.40;;;;;;5059038;28;20195;-88
2021/07/25 06:58:11;;;;;;;39.38;33.42;;;20.30;85.00;;;;;;5077064;28;20171;-89
2021/07/25 07:00:37;;;;;;;38.83;33.15;;;20.50;85.20;;;;;;5059232;28;20187;-89
2021/07/25 07:03:03;;;;;;;43.28;33.67;;;20.60;84.60;;;;;;5076921;28;20206;-88
2021/07/25 07:05:32;;;;;;;35.85;31.02;;;20.50;83.70;;;;;;5060491;28;20179;-89
2021/07/25 07:08:00;;;;;;;37.63;32.08;;;20.50;84.20;;;;;;5081597;28;20651;-88
2021/07/25 07:10:29;;;;;;;37.72;31.92;;;20.40;83.90;;;;;;5078804;28;20196;-89
2021/07/25 07:12:57;;;;;;;41.70;33.75;;;20.30;83.90;;;;;;5079579;28;20171;-89
2021/07/25 07:15:24;;;;;;;40.63;33.80;;;20.30;84.30;;;;;;5060967;28;20226;-88
2021/07/25 07:17:52;;;;;;;38.65;32.72;;;20.50;84.90;;;;;;5076721;28;20171;-88
2021/07/25 07:20:18;;;;;;;41.10;34.88;;;20.60;83.90;;;;;;5079169;28;20225;-89
2021/07/25 07:22:55;;;;;;;42.35;33.33;;;20.70;84.20;;;;;;5077503;28;20175;-88
2021/07/25 07:25:22;;;;;;;40.28;32.30;;;20.80;83.80;;;;;;5078929;28;20159;-89
2021/07/25 07:27:48;;;;;;;37.33;32.33;;;20.80;83.20;;;;;;5078542;28;20246;-88
2021/07/25 07:30:14;;;;;;;37.25;31.75;;;20.80;83.00;;;;;;5076729;28;20640;-88
2021/07/25 07:32:39;;;;;;;37.40;32.63;;;20.80;82.80;;;;;;5076855;28;20180;-88
2021/07/25 07:35:05;;;;;;;38.42;30.30;;;21.00;83.40;;;;;;5076123;28;20187;-89
2021/07/25 07:37:31;;;;;;;40.50;32.30;;;21.30;82.40;;;;;;5076191;28;20207;-88
2021/07/25 07:39:56;;;;;;;39.65;32.05;;;21.40;82.10;;;;;;5059118;28;20195;-88
2021/07/25 07:42:22;;;;;;;36.08;30.20;;;21.40;81.40;;;;;;5059675;28;20171;-88
2021/07/25 07:44:48;;;;;;;37.38;29.25;;;21.50;81.60;;;;;;5060261;28;20178;-88
2021/07/25 07:47:14;;;;;;;39.58;29.65;;;21.40;80.70;;;;;;5076430;28;20175;-88
2021/07/25 07:49:40;;;;;;;38.75;29.75;;;21.60;82.80;;;;;;5058307;28;20186;-88
2021/07/25 07:52:06;;;;;;;35.45;28.63;;;21.70;80.10;;;;;;5076503;28;20183;-87
2021/07/25 07:54:32;;;;;;;35.17;29.83;;;21.80;80.10;;;;;;5057946;28;20547;-87
2021/07/25 07:56:58;;;;;;;31.55;28.08;;;21.70;80.50;;;;;;5075521;28;20199;-87
2021/07/25 07:59:24;;;;;;;37.35;29.25;;;21.70;79.70;;;;;;5075372;28;20221;-87
2021/07/25 08:01:51;;;;;;;40.50;31.17;;;21.70;80.60;;;;;;5075661;28;20187;-87
2021/07/25 08:04:17;;;;;;;30.92;26.65;;;21.60;80.80;;;;;;5057470;28;20195;-87
2021/07/25 08:06:42;;;;;;;29.27;26.13;;;21.70;81.30;;;;;;5075330;28;20176;-87
2021/07/25 08:09:08;;;;;;;31.95;27.08;;;21.80;79.50;;;;;;5057629;28;20182;-87
2021/07/25 08:11:34;;;;;;;37.25;27.75;;;21.70;80.00;;;;;;5057250;28;20289;-87
2021/07/25 08:13:59;;;;;;;31.05;26.33;;;21.70;79.40;;;;;;5075203;28;20179;-88
2021/07/25 08:16:25;;;;;;;30.50;25.67;;;21.90;80.50;;;;;;5075586;28;20274;-87
2021/07/25 08:18:51;;;;;;;32.97;24.65;;;22.10;80.10;;;;;;5075104;28;20696;-87
2021/07/25 08:21:16;;;;;;;30.77;25.88;;;22.20;78.00;;;;;;5057527;28;20215;-87
2021/07/25 08:23:42;;;;;;;30.83;25.83;;;22.20;78.80;;;;;;5057701;28;20640;-88
2021/07/25 08:26:08;;;;;;;30.35;26.17;;;22.30;78.10;;;;;;5057812;28;20177;-87
2021/07/25 08:28:33;;;;;;;30.25;26.60;;;22.20;78.30;;;;;;5057198;28;20179;-88
2021/07/25 08:30:59;;;;;;;29.13;24.90;;;21.90;77.80;;;;;;5057084;28;20201;-87
2021/07/25 08:33:25;;;;;;;30.92;25.55;;;21.80;78.40;;;;;;5074871;28;20202;-87
2021/07/25 08:35:51;;;;;;;31.55;25.80;;;21.80;78.80;;;;;;5056770;28;20230;-87
2021/07/25 08:38:17;;;;;;;28.55;23.70;;;22.10;79.10;;;;;;5056846;28;20175;-87
2021/07/25 08:41:08;;;;;;;33.53;24.77;;;22.40;78.90;;;;;;5057156;28;20195;-87
2021/07/25 08:43:38;;;;;;;27.77;23.55;;;22.50;78.30;;;;;;5056725;28;20168;-87
2021/07/25 08:46:17;;;;;;;26.38;20.90;;;22.70;78.50;;;;;;5056795;28;20228;-87
2021/07/25 08:48:49;;;;;;;26.70;22.38;;;22.80;76.10;;;;;;5056923;28;20167;-86
2021/07/25 08:51:22;;;;;;;26.20;21.63;;;22.80;75.60;;;;;;5074907;28;20199;-87
2021/07/25 08:53:58;;;;;;;28.13;21.15;;;22.80;75.00;;;;;;5056649;28;20171;-87
2021/07/25 08:56:31;;;;;;;27.60;19.35;;;22.70;75.00;;;;;;5074364;28;20194;-87
2021/07/25 08:58:59;;;;;;;22.98;17.45;;;23.10;75.40;;;;;;5056497;28;20175;-88
2021/07/25 09:01:34;;;;;;;23.50;19.35;;;23.50;75.60;;;;;;5056510;28;20217;-87
2021/07/25 09:04:00;;;;;;;25.75;18.65;;;23.50;73.90;;;;;;5057352;28;20178;-87
2021/07/25 09:06:49;;;;;;;25.63;18.98;;;23.50;72.90;;;;;;5056431;28;20178;-89
2021/07/25 09:09:17;;;;;;;25.95;19.70;;;23.40;73.30;;;;;;5074826;28;20163;-88
2021/07/25 09:11:43;;;;;;;22.38;19.40;;;23.50;72.30;;;;;;5074352;28;20191;-88
2021/07/25 09:14:09;;;;;;;21.90;18.80;;;23.60;74.10;;;;;;5074195;28;20175;-88
2021/07/25 09:16:35;;;;;;;23.63;17.55;;;23.60;72.20;;;;;;5056252;28;20196;-88
2021/07/25 09:19:02;;;;;;;20.02;17.88;;;23.60;71.50;;;;;;5074137;28;20174;-88
2021/07/25 09:21:42;;;;;;;26.73;19.27;;;23.70;71.90;;;;;;5056177;28;20260;-88
2021/07/25 09:24:24;;;;;;;18.35;16.35;;;23.60;71.70;;;;;;5056541;28;20189;-88
2021/07/25 09:26:53;;;;;;;20.08;17.23;;;23.60;72.00;;;;;;5056455;28;20185;-89
2021/07/25 09:29:24;;;;;;;18.67;16.65;;;23.60;71.40;;;;;;5074379;28;20183;-88
2021/07/25 09:31:50;;;;;;;22.95;17.17;;;23.60;72.60;;;;;;5055881;28;20249;-87
2021/07/25 09:34:35;;;;;;;18.08;16.05;;;23.70;70.90;;;;;;5055771;28;20183;-87
2021/07/25 09:37:14;;;;;;;25.35;18.38;;;23.80;71.00;;;;;;5055539;28;20675;-87
2021/07/25 09:39:42;;;;;;;23.42;17.48;;;24.00;71.30;;;;;;5056670;28;20203;-88
2021/07/25 09:42:10;;;;;;;27.15;18.63;;;24.20;71.60;;;;;;5073547;28;20168;-88
2021/07/25 09:44:53;;;;;;;21.63;16.80;;;24.20;72.00;;;;;;5073495;28;20625;-88
2021/07/25 09:47:38;;;;;;;19.58;16.33;;;24.50;71.10;;;;;;5055580;28;20254;-87
2021/07/25 09:50:06;;;;;;;23.30;16.23;;;24.70;71.40;;;;;;5055191;28;20206;-87
2021/07/25 09:52:33;;;;;;;19.15;17.15;;;24.80;69.40;;;;;;5055633;28;20175;-88
2021/07/25 09:54:59;;;;;;;24.50;18.00;;;24.70;69.60;;;;;;5055519;28;20179;-88
2021/07/25 09:57:27;;;;;;;20.67;15.73;;;24.60;70.60;;;;;;5073633;28;20171;-88
2021/07/25 09:59:54;;;;;;;18.85;17.00;;;24.40;69.60;;;;;;5055591;28;20191;-88
2021/07/25 10:02:39;;;;;;;20.45;15.93;;;24.50;69.00;;;;;;5073429;28;20159;-89
2021/07/25 10:05:16;;;;;;;21.40;16.60;;;24.70;68.20;;;;;;5073215;28;20225;-88
2021/07/25 10:07:45;;;;;;;17.25;14.52;;;24.80;68.00;;;;;;5073169;28;20631;-86
2021/07/25 10:10:17;;;;;;;19.05;14.50;;;25.00;70.00;;;;;;5073045;28;20559;-87
2021/07/25 10:12:44;;;;;;;20.88;15.23;;;24.90;67.80;;;;;;5055250;28;20206;-87
2021/07/25 10:15:16;;;;;;;15.63;13.35;;;25.20;67.30;;;;;;5073030;28;20171;-87
2021/07/25 10:17:44;;;;;;;15.43;13.27;;;25.10;68.10;;;;;;5055138;28;20214;-88
2021/07/25 10:20:12;;;;;;;18.10;12.65;;;25.20;68.10;;;;;;5073276;28;20678;-89
2021/07/25 10:22:39;;;;;;;14.27;12.55;;;25.30;66.10;;;;;;5055944;28;20616;-89
2021/07/25 10:25:07;;;;;;;16.10;13.68;;;25.20;67.30;;;;;;5073567;28;20250;-89
2021/07/25 10:27:34;;;;;;;14.82;12.55;;;25.20;64.60;;;;;;5055112;28;20176;-88
2021/07/25 10:30:08;;;;;;;13.98;12.52;;;25.50;64.40;;;;;;5055281;28;20188;-89
2021/07/25 10:32:37;;;;;;;14.85;13.23;;;25.50;63.60;;;;;;5073416;28;20557;-88
2021/07/25 10:35:06;;;;;;;13.43;12.13;;;25.40;65.90;;;;;;5055612;28;20225;-88
2021/07/25 10:37:35;;;;;;;12.68;11.00;;;25.50;65.60;;;;;;5073132;28;20172;-88
2021/07/25 10:40:02;;;;;;;12.82;11.10;;;25.80;64.00;;;;;;5073030;28;20184;-89
2021/07/25 10:42:30;;;;;;;17.70;11.13;;;25.70;65.00;;;;;;5055519;28;20175;-89
2021/07/25 10:44:56;;;;;;;13.13;11.70;;;25.80;63.90;;;;;;5073003;28;20199;-88
2021/07/25 10:47:30;;;;;;;13.85;11.23;;;25.90;63.10;;;;;;5055463;28;20179;-89
2021/07/25 10:50:12;;;;;;;12.35;10.02;;;26.10;64.00;;;;;;5055040;28;20198;-89
2021/07/25 10:52:52;;;;;;;12.23;10.98;;;26.30;61.20;;;;;;5056543;28;20179;-89
2021/07/25 10:55:41;;;;;;;15.25;9.57;;;26.20;62.80;;;;;;5075023;28;20592;-88
2021/07/25 10:58:18;;;;;;;14.18;10.05;;;26.00;62.30;;;;;;5072949;28;20542;-88
2021/07/25 11:00:51;;;;;;;14.13;10.30;;;26.20;62.30;;;;;;5074071;28;20191;-88
2021/07/25 11:03:29;;;;;;;12.73;10.02;;;26.20;61.60;;;;;;5076820;28;20239;-87
2021/07/25 11:06:15;;;;;;;14.75;10.68;;;26.20;61.70;;;;;;5059005;28;20178;-87
2021/07/25 11:08:45;;;;;;;11.35;7.85;;;26.40;62.10;;;;;;5058666;28;20171;-88
2021/07/25 11:11:26;;;;;;;8.98;7.88;;;26.40;57.90;;;;;;5076400;28;20187;-88
2021/07/25 11:13:53;;;;;;;9.98;7.82;;;26.60;59.50;;;;;;5076674;28;20176;-88
2021/07/25 11:16:27;;;;;;;11.75;8.55;;;26.80;59.10;;;;;;5058356;28;20208;-88
2021/07/25 11:18:54;;;;;;;14.75;8.23;;;27.00;58.40;;;;;;5058796;28;20182;-88
2021/07/25 11:21:39;;;;;;;12.20;8.18;;;26.60;55.30;;;;;;5058200;28;20256;-87
2021/07/25 11:24:31;;;;;;;10.35;9.23;;;26.50;57.00;;;;;;5058981;28;20246;-87
2021/07/25 11:26:59;;;;;;;11.02;8.32;;;26.70;56.40;;;;;;5071872;28;20599;-87
2021/07/25 11:29:33;;;;;;;10.02;9.02;;;26.80;57.60;;;;;;5057862;28;20183;-87
2021/07/25 11:32:03;;;;;;;9.82;8.82;;;27.00;57.00;;;;;;5057830;28;20171;-87
2021/07/25 11:34:32;;;;;;;11.32;8.85;;;27.20;59.00;;;;;;5075770;28;20172;-87
2021/07/25 11:37:03;;;;;;;9.55;8.57;;;27.10;56.00;;;;;;5057813;28;20191;-87
2021/07/25 11:39:29;;;;;;;14.93;8.65;;;26.90;57.40;;;;;;5075709;28;20156;-87
2021/07/25 11:41:56;;;;;;;11.90;10.02;;;26.80;55.80;;;;;;5057544;28;20191;-86
2021/07/25 11:44:25;;;;;;;12.55;8.55;;;27.10;57.80;;;;;;5057642;28;20174;-87
2021/07/25 11:46:51;;;;;;;13.50;8.80;;;27.50;55.60;;;;;;5057575;28;20655;-86
2021/07/25 11:49:30;;;;;;;9.20;6.78;;;27.60;54.60;;;;;;5075454;28;20220;-86
2021/07/25 11:52:01;;;;;;;10.55;6.93;;;27.40;54.30;;;;;;5057525;28;20674;-86
2021/07/25 11:54:33;;;;;;;12.90;7.45;;;27.10;53.20;;;;;;5057559;28;20722;-86
2021/07/25 11:57:20;;;;;;;10.63;8.05;;;27.40;55.20;;;;;;5075302;28;20301;-86
2021/07/25 11:59:49;;;;;;;8.70;7.13;;;27.30;53.90;;;;;;5050707;28;20537;-87
2021/07/25 12:02:26;;;;;;;8.13;7.30;;;27.20;55.40;;;;;;5057344;28;20258;-86
2021/07/25 12:04:52;;;;;;;8.88;7.78;;;27.50;56.40;;;;;;5057447;28;20171;-85
2021/07/25 12:07:20;;;;;;;11.40;7.75;;;27.60;53.70;;;;;;5057147;28;20655;-86
2021/07/25 12:09:48;;;;;;;11.73;7.95;;;27.60;55.30;;;;;;5057159;28;20180;-86
2021/07/25 12:12:15;;;;;;;9.10;7.82;;;27.50;52.30;;;;;;5056705;28;20241;-86
2021/07/25 12:14:45;;;;;;;9.23;7.38;;;27.70;55.40;;;;;;5074987;28;20202;-86
2021/07/25 12:17:11;;;;;;;7.68;6.70;;;27.70;55.40;;;;;;5074989;28;20191;-86
2021/07/25 12:19:42;;;;;;;8.80;6.22;;;28.00;52.20;;;;;;5056795;28;20207;-86
2021/07/25 12:22:10;;;;;;;8.80;5.63;;;27.60;52.40;;;;;;5080595;23;20327;-89
2021/07/25 12:24:39;;;;;;;6.18;5.55;;;27.90;53.80;;;;;;5073495;28;20244;-88
2021/07/25 12:27:06;;;;;;;7.18;6.00;;;28.20;52.40;;;;;;5073430;28;20180;-89
2021/07/25 12:29:45;;;;;;;6.70;5.45;;;28.20;50.70;;;;;;5073353;28;20186;-89
2021/07/25 12:32:23;;;;;;;8.50;7.68;;;28.50;50.60;;;;;;5073571;28;20195;-88
2021/07/25 12:35:11;;;;;;;12.75;8.02;;;28.40;49.20;;;;;;5056618;28;20187;-88
2021/07/25 12:37:50;;;;;;;8.20;7.32;;;28.50;52.30;;;;;;5043359;28;20187;-88